createdAt,value
2018-12-16T00:02:15.378Z,7.87
2018-12-16T00:04:49.902Z,8.60
2018-12-16T00:07:14.645Z,7.60
2018-12-16T00:09:43.177Z,7.30
2018-12-16T00:12:11.763Z,7.93
2018-12-16T00:14:40.283Z,5.57
2018-12-16T00:17:08.842Z,7.63
2018-12-16T00:19:37.346Z,7.40
2018-12-16T00:22:05.935Z,7.87
2018-12-16T00:24:34.507Z,7.50
2018-12-16T00:27:11.053Z,7.53
2018-12-16T00:29:39.778Z,8.33
2018-12-16T00:32:08.347Z,8.20
2018-12-16T00:34:36.862Z,8.23
2018-12-16T00:37:05.788Z,8.03
2018-12-16T00:39:34.368Z,8.57
2018-12-16T00:42:02.974Z,7.93
2018-12-16T00:44:31.584Z,9.23
2018-12-16T00:47:00.154Z,9.30
2018-12-16T00:49:28.734Z,9.57
2018-12-16T00:51:57.325Z,9.67
2018-12-16T00:54:25.900Z,9.20
2018-12-16T00:56:54.473Z,9.57
2018-12-16T00:59:23.092Z,8.97
2018-12-16T01:01:51.651Z,9.13
2018-12-16T01:04:20.218Z,9.83
2018-12-16T01:06:48.833Z,9.07
2018-12-16T01:09:17.470Z,10.13
2018-12-16T01:11:46.088Z,10.87
2018-12-16T01:14:14.684Z,9.87
2018-12-16T01:16:43.277Z,9.20
2018-12-16T01:19:11.880Z,8.33
2018-12-16T01:21:40.525Z,8.80
2018-12-16T01:24:09.084Z,9.03
2018-12-16T01:26:37.730Z,9.20
2018-12-16T01:29:06.294Z,8.47
2018-12-16T01:31:34.843Z,8.77
2018-12-16T01:34:03.552Z,8.50
2018-12-16T01:36:32.149Z,8.40
2018-12-16T01:39:00.788Z,8.07
2018-12-16T01:41:29.863Z,8.53
2018-12-16T01:43:58.984Z,6.80
2018-12-16T01:46:29.769Z,7.80
2018-12-16T01:48:58.321Z,8.73
2018-12-16T01:51:26.969Z,9.80
2018-12-16T01:53:55.529Z,11.40
2018-12-16T01:56:24.080Z,11.53
2018-12-16T01:58:52.656Z,12.43
2018-12-16T02:01:21.208Z,11.70
2018-12-16T02:03:49.771Z,11.40
2018-12-16T02:06:18.463Z,11.00
2018-12-16T02:08:47.028Z,11.90
2018-12-16T02:11:15.528Z,10.97
2018-12-16T02:13:44.109Z,11.30
2018-12-16T02:16:12.652Z,11.07
2018-12-16T02:18:41.234Z,10.90
2018-12-16T02:21:09.794Z,10.07
2018-12-16T02:23:38.355Z,8.20
2018-12-16T02:26:07.041Z,9.33
2018-12-16T02:28:35.597Z,8.37
2018-12-16T02:31:04.223Z,9.43
2018-12-16T02:33:32.789Z,11.00
2018-12-16T02:36:01.311Z,9.77
2018-12-16T02:38:29.905Z,10.43
2018-12-16T02:40:58.454Z,10.27
2018-12-16T02:43:27.074Z,10.80
2018-12-16T02:45:55.773Z,10.33
2018-12-16T02:48:24.346Z,9.83
2018-12-16T02:50:52.939Z,10.97
2018-12-16T02:53:21.508Z,11.60
2018-12-16T02:55:50.074Z,11.53
2018-12-16T02:58:18.734Z,12.57
2018-12-16T03:00:47.327Z,13.17
2018-12-16T03:03:22.324Z,14.13
2018-12-16T03:05:50.918Z,13.27
2018-12-16T03:08:19.482Z,11.20
2018-12-16T03:10:48.118Z,11.77
2018-12-16T03:13:16.654Z,11.40
2018-12-16T03:15:45.334Z,10.87
2018-12-16T03:18:13.905Z,10.97
2018-12-16T03:20:43.055Z,11.97
2018-12-16T03:23:12.534Z,11.43
2018-12-16T03:25:41.395Z,11.60
2018-12-16T03:28:10.000Z,15.13
2018-12-16T03:30:38.563Z,15.13
2018-12-16T03:33:07.185Z,14.03
2018-12-16T03:35:35.778Z,13.80
2018-12-16T03:38:04.470Z,14.17
2018-12-16T03:40:32.995Z,14.43
2018-12-16T03:43:01.977Z,12.80
2018-12-16T03:45:30.588Z,8.83
2018-12-16T03:47:59.253Z,9.90
2018-12-16T03:50:27.803Z,11.20
2018-12-16T03:52:56.367Z,10.10
2018-12-16T03:55:24.941Z,10.30
2018-12-16T03:57:53.516Z,9.50
2018-12-16T04:00:22.279Z,10.47
2018-12-16T04:02:50.858Z,10.17
2018-12-16T04:05:19.486Z,11.30
2018-12-16T04:07:48.146Z,12.00
2018-12-16T04:10:16.729Z,11.63
2018-12-16T04:12:45.333Z,11.80
2018-12-16T04:15:14.033Z,11.70
2018-12-16T04:17:42.603Z,10.33
2018-12-16T04:20:11.218Z,12.73
2018-12-16T04:22:39.818Z,11.37
2018-12-16T04:25:08.342Z,11.07
2018-12-16T04:27:36.895Z,13.50
2018-12-16T04:30:13.622Z,14.50
2018-12-16T04:32:42.179Z,13.23
2018-12-16T04:35:10.743Z,13.07
2018-12-16T04:37:39.391Z,13.93
2018-12-16T04:40:08.206Z,14.37
2018-12-16T04:42:36.764Z,15.33
2018-12-16T04:45:05.914Z,12.97
2018-12-16T04:47:34.465Z,16.33
2018-12-16T04:50:02.998Z,15.83
2018-12-16T04:52:31.550Z,22.63
2018-12-16T04:55:00.086Z,18.00
2018-12-16T04:57:28.663Z,23.87
2018-12-16T04:59:57.196Z,24.30
2018-12-16T05:02:25.709Z,20.87
2018-12-16T05:04:54.328Z,14.67
2018-12-16T05:07:23.231Z,13.80
2018-12-16T05:09:51.720Z,11.27
2018-12-16T05:12:20.614Z,9.90
2018-12-16T05:14:49.080Z,9.17
2018-12-16T05:17:17.633Z,9.60
2018-12-16T05:19:46.156Z,9.10
2018-12-16T05:22:14.714Z,8.83
2018-12-16T05:24:43.272Z,8.90
2018-12-16T05:27:11.837Z,8.33
2018-12-16T05:29:40.515Z,8.03
2018-12-16T05:32:09.127Z,9.43
2018-12-16T05:34:37.675Z,8.83
2018-12-16T05:37:06.226Z,9.10
2018-12-16T05:39:34.752Z,8.00
2018-12-16T05:42:03.365Z,7.50
2018-12-16T05:44:31.856Z,8.10
2018-12-16T05:47:00.377Z,6.73
2018-12-16T05:49:28.887Z,7.77
2018-12-16T05:51:57.671Z,7.57
2018-12-16T05:54:26.275Z,8.40
2018-12-16T05:56:54.879Z,6.40
2018-12-16T05:59:23.457Z,5.97
2018-12-16T06:01:52.084Z,5.77
2018-12-16T06:04:20.690Z,6.00
2018-12-16T06:06:49.245Z,5.77
2018-12-16T06:09:17.808Z,5.40
2018-12-16T06:11:46.399Z,5.53
2018-12-16T06:14:14.948Z,4.77
2018-12-16T06:16:43.421Z,4.50
2018-12-16T06:19:12.469Z,4.30
2018-12-16T06:21:41.046Z,4.03
2018-12-16T06:24:09.553Z,4.17
2018-12-16T06:26:38.116Z,3.00
2018-12-16T06:29:06.785Z,3.93
2018-12-16T06:31:35.377Z,3.97
2018-12-16T06:34:03.919Z,3.87
2018-12-16T06:36:32.522Z,3.77
2018-12-16T06:39:01.053Z,3.17
2018-12-16T06:41:30.028Z,3.17
2018-12-16T06:43:58.583Z,3.10
2018-12-16T06:46:27.107Z,3.47
2018-12-16T06:48:55.725Z,3.10
2018-12-16T06:51:24.260Z,3.50
2018-12-16T06:53:52.815Z,3.67
2018-12-16T06:56:21.593Z,3.50
2018-12-16T06:58:50.145Z,3.73
2018-12-16T07:01:18.778Z,3.13
2018-12-16T07:03:47.364Z,3.67
2018-12-16T07:06:15.939Z,3.63
2018-12-16T07:08:44.472Z,3.60
2018-12-16T07:11:13.039Z,3.97
2018-12-16T07:13:41.601Z,3.03
2018-12-16T07:16:10.293Z,3.07
2018-12-16T07:18:38.933Z,3.47
2018-12-16T07:21:07.631Z,3.20
2018-12-16T07:23:36.285Z,3.40
2018-12-16T07:26:04.826Z,3.30
2018-12-16T07:28:33.422Z,5.13
2018-12-16T07:31:01.999Z,2.97
2018-12-16T07:33:30.628Z,3.70
2018-12-16T07:35:59.189Z,2.70
2018-12-16T07:38:27.792Z,3.17
2018-12-16T07:40:56.804Z,2.92
2018-12-16T07:43:25.461Z,3.10
2018-12-16T07:45:54.953Z,3.20
2018-12-16T07:48:23.810Z,3.33
2018-12-16T07:50:52.601Z,2.70
2018-12-16T07:53:21.163Z,3.25
2018-12-16T07:55:49.718Z,3.10
2018-12-16T07:58:18.326Z,3.12
2018-12-16T08:00:47.026Z,3.75
2018-12-16T08:03:15.582Z,3.25
2018-12-16T08:05:44.222Z,3.90
2018-12-16T08:08:12.924Z,3.52
2018-12-16T08:10:41.505Z,3.20
2018-12-16T08:13:10.117Z,3.50
2018-12-16T08:15:38.656Z,3.67
2018-12-16T08:18:07.263Z,4.30
2018-12-16T08:20:35.940Z,3.87
2018-12-16T08:23:04.507Z,3.62
2018-12-16T08:25:33.181Z,5.17
2018-12-16T08:28:01.740Z,5.08
2018-12-16T08:30:30.367Z,4.37
2018-12-16T08:32:59.031Z,4.83
2018-12-16T08:35:27.652Z,3.98
2018-12-16T08:37:56.190Z,4.00
2018-12-16T08:40:24.864Z,5.08
2018-12-16T08:42:53.386Z,4.85
2018-12-16T08:45:21.925Z,4.25
2018-12-16T08:47:50.482Z,5.20
2018-12-16T08:50:19.033Z,5.55
2018-12-16T08:52:47.601Z,5.47
2018-12-16T08:55:16.197Z,5.00
2018-12-16T08:57:44.776Z,4.20
2018-12-16T09:00:13.620Z,5.15
2018-12-16T09:02:42.229Z,4.20
2018-12-16T09:05:10.811Z,5.25
2018-12-16T09:07:39.361Z,4.45
2018-12-16T09:10:09.205Z,4.12
2018-12-16T09:12:37.825Z,5.55
2018-12-16T09:15:07.294Z,5.08
2018-12-16T09:17:35.805Z,6.20
2018-12-16T09:20:04.872Z,6.60
2018-12-16T09:22:33.484Z,7.42
2018-12-16T09:25:02.143Z,6.85
2018-12-16T09:27:30.883Z,5.70
2018-12-16T09:29:59.463Z,6.30
2018-12-16T09:32:28.075Z,5.90
2018-12-16T09:34:56.664Z,5.78
2018-12-16T09:37:25.197Z,6.97
2018-12-16T09:39:53.737Z,9.08
2018-12-16T09:42:22.389Z,6.97
2018-12-16T09:44:51.085Z,6.83
2018-12-16T09:47:20.087Z,5.80
2018-12-16T09:49:49.507Z,7.37
2018-12-16T09:52:18.197Z,8.05
2018-12-16T09:54:46.825Z,11.80
2018-12-16T09:57:15.395Z,7.42
2018-12-16T09:59:43.998Z,6.10
2018-12-16T10:02:12.552Z,7.62
2018-12-16T10:04:41.157Z,8.10
2018-12-16T10:07:09.766Z,8.68
2018-12-16T10:09:38.409Z,6.05
2018-12-16T10:12:07.033Z,9.23
2018-12-16T10:14:35.541Z,8.15
2018-12-16T10:17:04.257Z,10.58
2018-12-16T10:19:32.900Z,8.65
2018-12-16T10:22:01.470Z,13.13
2018-12-16T10:24:30.156Z,9.48
2018-12-16T10:26:58.767Z,11.35
2018-12-16T10:29:27.475Z,13.15
2018-12-16T10:31:56.042Z,9.35
2018-12-16T10:34:24.635Z,7.80
2018-12-16T10:36:53.191Z,9.03
2018-12-16T10:39:21.699Z,8.80
2018-12-16T10:41:50.255Z,7.50
2018-12-16T10:44:19.711Z,7.65
2018-12-16T10:46:48.664Z,10.03
2018-12-16T10:49:17.201Z,9.40
2018-12-16T10:51:45.768Z,8.73
2018-12-16T10:54:14.416Z,8.18
2018-12-16T10:56:42.939Z,6.37
2018-12-16T10:59:11.538Z,7.95
2018-12-16T11:01:40.095Z,8.33
2018-12-16T11:04:09.142Z,7.83
2018-12-16T11:06:37.822Z,8.33
2018-12-16T11:09:06.542Z,9.10
2018-12-16T11:11:35.120Z,9.25
2018-12-16T11:14:03.694Z,10.78
2018-12-16T11:16:32.289Z,12.05
2018-12-16T11:19:01.665Z,10.15
2018-12-16T11:21:30.205Z,10.68
2018-12-16T11:23:58.802Z,11.73
2018-12-16T11:26:27.354Z,10.78
2018-12-16T11:28:55.950Z,9.38
2018-12-16T11:31:24.525Z,11.05
2018-12-16T11:33:53.197Z,10.48
2018-12-16T11:36:21.729Z,9.70
2018-12-16T11:38:50.311Z,9.85
2018-12-16T11:41:18.899Z,10.72
2018-12-16T11:43:47.448Z,10.55
2018-12-16T11:46:16.019Z,9.63
2018-12-16T11:48:44.620Z,7.53
2018-12-16T11:51:13.167Z,9.45
2018-12-16T11:53:41.735Z,10.28
2018-12-16T11:56:10.290Z,8.43
2018-12-16T11:58:38.894Z,9.63
2018-12-16T12:01:07.458Z,9.23
2018-12-16T12:03:36.029Z,9.18
2018-12-16T12:06:04.652Z,7.72
2018-12-16T12:08:33.185Z,8.33
2018-12-16T12:11:01.783Z,7.40
2018-12-16T12:13:30.328Z,8.48
2018-12-16T12:15:58.927Z,8.28
2018-12-16T12:18:27.533Z,11.35
2018-12-16T12:20:56.103Z,8.48
2018-12-16T12:23:24.629Z,8.70
2018-12-16T12:25:53.176Z,6.60
2018-12-16T12:28:22.017Z,8.15
2018-12-16T12:30:50.796Z,8.05
2018-12-16T12:33:19.528Z,6.58
2018-12-16T12:35:48.149Z,7.25
2018-12-16T12:38:16.701Z,8.93
2018-12-16T12:40:45.246Z,7.00
2018-12-16T12:43:13.798Z,8.10
2018-12-16T12:45:42.293Z,8.68
2018-12-16T12:48:10.867Z,8.33
2018-12-16T12:50:39.431Z,10.28
2018-12-16T12:53:08.011Z,8.60
2018-12-16T12:55:36.576Z,8.88
2018-12-16T12:58:05.320Z,9.45
2018-12-16T13:00:33.855Z,7.58
2018-12-16T13:03:02.521Z,7.60
2018-12-16T13:05:36.872Z,7.45
2018-12-16T13:08:01.665Z,6.58
2018-12-16T13:10:30.217Z,7.55
2018-12-16T13:12:58.792Z,7.65
2018-12-16T13:15:27.385Z,7.92
2018-12-16T13:17:56.115Z,7.05
2018-12-16T13:20:24.694Z,7.00
2018-12-16T13:22:53.336Z,7.17
2018-12-16T13:25:35.611Z,7.55
2018-12-16T13:28:03.750Z,7.28
2018-12-16T13:30:32.329Z,8.33
2018-12-16T13:33:00.858Z,9.88
2018-12-16T13:35:29.609Z,6.85
2018-12-16T13:37:58.228Z,9.25
2018-12-16T13:40:26.787Z,8.63
2018-12-16T13:42:55.405Z,8.10
2018-12-16T13:45:24.122Z,8.13
2018-12-16T13:47:52.890Z,7.05
2018-12-16T13:50:21.487Z,7.03
2018-12-16T13:52:50.260Z,8.83
2018-12-16T13:55:18.802Z,7.05
2018-12-16T13:57:47.806Z,8.40
2018-12-16T14:00:16.707Z,8.85
2018-12-16T14:02:45.302Z,9.45
2018-12-16T14:05:14.097Z,7.90
2018-12-16T14:07:43.827Z,6.72
2018-12-16T14:10:12.382Z,9.25
2018-12-16T14:12:40.965Z,9.60
2018-12-16T14:15:09.830Z,9.20
2018-12-16T14:17:39.334Z,7.67
2018-12-16T14:20:09.678Z,8.68
2018-12-16T14:22:38.343Z,7.08
2018-12-16T14:25:07.409Z,7.70
2018-12-16T14:27:35.956Z,7.60
2018-12-16T14:30:13.329Z,9.58
2018-12-16T14:32:41.932Z,8.03
2018-12-16T14:35:11.338Z,8.65
2018-12-16T14:37:39.880Z,8.83
2018-12-16T14:40:10.400Z,9.40
2018-12-16T14:42:39.109Z,8.95
2018-12-16T14:45:09.452Z,10.55
2018-12-16T14:47:38.302Z,9.90
2018-12-16T14:50:09.602Z,9.30
2018-12-16T14:52:38.247Z,7.87
2018-12-16T14:55:08.492Z,9.78
2018-12-16T14:57:37.120Z,8.00
2018-12-16T15:00:14.212Z,10.63
2018-12-16T15:02:42.814Z,10.20
2018-12-16T15:05:11.427Z,9.23
2018-12-16T15:07:39.988Z,9.40
2018-12-16T15:10:10.540Z,8.83
2018-12-16T15:12:39.199Z,8.88
2018-12-16T15:15:08.745Z,10.72
2018-12-16T15:17:42.676Z,9.48
2018-12-16T15:20:09.055Z,12.28
2018-12-16T15:22:38.701Z,11.50
2018-12-16T15:25:07.450Z,9.40
2018-12-16T15:27:36.001Z,10.68
2018-12-16T15:30:13.726Z,9.28
2018-12-16T15:32:42.324Z,8.48
2018-12-16T15:35:11.852Z,10.78
2018-12-16T15:37:40.456Z,8.88
2018-12-16T15:40:09.231Z,11.75
2018-12-16T15:42:37.754Z,9.80
2018-12-16T15:45:08.428Z,9.78
2018-12-16T15:47:37.080Z,10.23
2018-12-16T15:50:06.610Z,11.78
2018-12-16T15:52:35.341Z,11.10
2018-12-16T15:55:04.284Z,10.15
2018-12-16T15:57:32.857Z,10.65
2018-12-16T16:00:01.398Z,11.28
2018-12-16T16:02:29.938Z,12.15
2018-12-16T16:04:58.454Z,12.37
2018-12-16T16:07:27.015Z,12.28
2018-12-16T16:09:55.573Z,14.75
2018-12-16T16:12:24.141Z,13.70
2018-12-16T16:14:52.728Z,13.43
2018-12-16T16:17:21.297Z,13.88
2018-12-16T16:19:49.915Z,12.45
2018-12-16T16:22:18.467Z,13.22
2018-12-16T16:24:47.017Z,12.25
2018-12-16T16:27:15.585Z,12.85
2018-12-16T16:29:44.188Z,13.13
2018-12-16T16:32:12.738Z,14.00
2018-12-16T16:34:41.284Z,11.53
2018-12-16T16:37:09.854Z,12.47
2018-12-16T16:39:38.443Z,11.95
2018-12-16T16:42:08.592Z,12.80
2018-12-16T16:44:37.144Z,13.68
2018-12-16T16:47:05.730Z,14.68
2018-12-16T16:49:34.284Z,15.53
2018-12-16T16:52:02.887Z,14.63
2018-12-16T16:54:31.488Z,14.35
2018-12-16T16:57:00.025Z,17.20
2018-12-16T16:59:28.603Z,13.32
2018-12-16T17:01:57.196Z,15.25
2018-12-16T17:04:26.384Z,15.90
2018-12-16T17:06:54.967Z,13.83
2018-12-16T17:09:23.501Z,12.95
2018-12-16T17:11:52.090Z,13.15
2018-12-16T17:14:20.699Z,14.33
2018-12-16T17:16:49.288Z,13.70
2018-12-16T17:19:18.136Z,14.75
2018-12-16T17:21:47.139Z,13.22
2018-12-16T17:24:15.703Z,13.62
2018-12-16T17:26:44.265Z,14.05
2018-12-16T17:29:12.841Z,12.18
2018-12-16T17:31:41.393Z,11.30
2018-12-16T17:34:09.956Z,12.47
2018-12-16T17:36:38.492Z,12.53
2018-12-16T17:39:09.001Z,8.58
2018-12-16T17:41:37.678Z,13.05
2018-12-16T17:44:06.283Z,10.55
2018-12-16T17:46:34.860Z,10.72
2018-12-16T17:49:03.438Z,9.85
2018-12-16T17:51:32.020Z,10.93
2018-12-16T17:54:00.595Z,9.53
2018-12-16T17:56:29.216Z,8.58
2018-12-16T17:58:57.814Z,9.20
2018-12-16T18:01:26.449Z,9.83
2018-12-16T18:03:55.013Z,11.33
2018-12-16T18:06:24.309Z,9.50
2018-12-16T18:08:53.214Z,8.98
2018-12-16T18:11:22.494Z,10.10
2018-12-16T18:13:51.019Z,10.43
2018-12-16T18:16:19.586Z,9.03
2018-12-16T18:18:48.140Z,9.28
2018-12-16T18:21:16.675Z,10.48
2018-12-16T18:23:45.244Z,9.03
2018-12-16T18:26:13.751Z,8.73
2018-12-16T18:28:42.670Z,8.73
2018-12-16T18:31:11.225Z,10.03
2018-12-16T18:33:39.771Z,11.03
2018-12-16T18:36:08.364Z,11.25
2018-12-16T18:38:36.941Z,9.53
2018-12-16T18:41:05.533Z,9.53
2018-12-16T18:43:34.094Z,8.38
2018-12-16T18:46:02.691Z,7.12
2018-12-16T18:48:31.241Z,7.53
2018-12-16T18:50:59.761Z,7.47
2018-12-16T18:53:28.711Z,8.48
2018-12-16T18:55:57.320Z,8.95
2018-12-16T18:58:25.864Z,7.92
2018-12-16T19:00:54.396Z,7.17
2018-12-16T19:03:22.980Z,8.80
2018-12-16T19:05:51.522Z,8.98
2018-12-16T19:08:20.111Z,12.53
2018-12-16T19:10:48.702Z,8.35
2018-12-16T19:13:17.247Z,9.08
2018-12-16T19:15:45.786Z,8.05
2018-12-16T19:18:14.362Z,8.83
2018-12-16T19:20:44.190Z,10.23
2018-12-16T19:23:12.747Z,9.45
2018-12-16T19:25:42.312Z,7.60
2018-12-16T19:28:11.062Z,7.92
2018-12-16T19:30:39.592Z,9.68
2018-12-16T19:33:08.166Z,9.48
2018-12-16T19:35:36.702Z,9.45
2018-12-16T19:38:05.238Z,9.40
2018-12-16T19:40:33.798Z,9.48
2018-12-16T19:43:02.376Z,8.88
2018-12-16T19:45:30.926Z,8.00
2018-12-16T19:47:59.487Z,7.60
2018-12-16T19:50:28.024Z,8.68
2018-12-16T19:52:56.550Z,9.25
2018-12-16T19:55:25.595Z,10.23
2018-12-16T19:57:54.122Z,9.88
2018-12-16T20:00:22.679Z,8.45
2018-12-16T20:02:51.206Z,9.05
2018-12-16T20:05:20.818Z,9.55
2018-12-16T20:07:50.176Z,9.00
2018-12-16T20:10:18.742Z,8.28
2018-12-16T20:12:47.344Z,9.50
2018-12-16T20:15:15.871Z,9.20
2018-12-16T20:17:44.445Z,7.53
2018-12-16T20:20:13.117Z,7.58
2018-12-16T20:22:41.681Z,8.68
2018-12-16T20:25:10.254Z,10.13
2018-12-16T20:27:38.790Z,8.80
2018-12-16T20:30:11.221Z,8.65
2018-12-16T20:32:39.749Z,10.10
2018-12-16T20:35:08.366Z,9.63
2018-12-16T20:37:37.902Z,9.18
2018-12-16T20:40:07.809Z,8.90
2018-12-16T20:42:36.339Z,8.73
2018-12-16T20:45:06.101Z,8.83
2018-12-16T20:47:34.630Z,8.85
2018-12-16T20:50:03.313Z,9.23
2018-12-16T20:52:31.833Z,9.75
2018-12-16T20:55:00.386Z,8.25
2018-12-16T20:57:28.917Z,8.98
2018-12-16T20:59:57.508Z,9.45
2018-12-16T21:02:26.086Z,9.28
2018-12-16T21:04:54.648Z,9.45
2018-12-16T21:07:23.181Z,8.80
2018-12-16T21:09:51.729Z,7.87
2018-12-16T21:12:25.626Z,9.40
2018-12-16T21:14:59.398Z,10.30
2018-12-16T21:17:33.305Z,8.53
2018-12-16T21:20:01.872Z,8.35
2018-12-16T21:22:30.422Z,7.75
2018-12-16T21:24:59.016Z,9.18
2018-12-16T21:27:27.778Z,11.28
2018-12-16T21:29:56.305Z,9.70
2018-12-16T21:32:24.964Z,8.55
2018-12-16T21:34:53.617Z,6.33
2018-12-16T21:37:22.174Z,7.53
2018-12-16T21:39:50.875Z,8.98
2018-12-16T21:42:19.484Z,8.13
2018-12-16T21:44:48.065Z,7.87
2018-12-16T21:47:16.624Z,8.83
2018-12-16T21:49:45.235Z,7.80
2018-12-16T21:52:13.784Z,6.92
2018-12-16T21:54:42.343Z,7.10
2018-12-16T21:57:10.894Z,8.73
2018-12-16T21:59:39.751Z,7.40
2018-12-16T22:02:08.265Z,8.70
2018-12-16T22:04:36.827Z,8.30
2018-12-16T22:07:05.366Z,7.37
2018-12-16T22:09:33.929Z,8.18
2018-12-16T22:12:02.464Z,8.00
2018-12-16T22:14:31.080Z,8.10
2018-12-16T22:16:59.661Z,7.12
2018-12-16T22:19:28.204Z,7.72
2018-12-16T22:21:56.691Z,7.42
2018-12-16T22:24:25.289Z,8.28
2018-12-16T22:26:53.833Z,7.30
2018-12-16T22:29:22.355Z,7.05
2018-12-16T22:31:50.944Z,8.43
2018-12-16T22:34:20.414Z,8.30
2018-12-16T22:36:49.047Z,6.67
2018-12-16T22:39:17.635Z,7.20
2018-12-16T22:41:46.174Z,8.00
2018-12-16T22:44:14.703Z,7.42
2018-12-16T22:46:43.775Z,8.10
2018-12-16T22:49:12.351Z,7.20
2018-12-16T22:51:40.896Z,7.85
2018-12-16T22:54:09.443Z,8.25
2018-12-16T22:56:38.028Z,7.80
2018-12-16T22:59:06.557Z,7.40
2018-12-16T23:01:35.131Z,8.33
2018-12-16T23:04:03.675Z,8.20
2018-12-16T23:06:32.221Z,6.58
2018-12-16T23:09:00.933Z,7.10
2018-12-16T23:11:29.647Z,6.85
2018-12-16T23:13:58.465Z,7.45
2018-12-16T23:16:28.001Z,7.55
2018-12-16T23:18:56.538Z,8.00
2018-12-16T23:21:25.139Z,7.00
2018-12-16T23:23:53.751Z,6.67
2018-12-16T23:26:22.315Z,7.20
2018-12-16T23:28:51.098Z,7.65
2018-12-16T23:31:19.665Z,6.60
2018-12-16T23:33:48.175Z,7.92
2018-12-16T23:36:16.888Z,6.70
2018-12-16T23:38:45.459Z,7.00
2018-12-16T23:41:14.048Z,6.95
2018-12-16T23:43:42.580Z,7.25
2018-12-16T23:46:11.094Z,7.97
2018-12-16T23:48:39.675Z,7.05
2018-12-16T23:51:08.358Z,7.05
2018-12-16T23:53:36.923Z,6.83
2018-12-16T23:56:05.443Z,7.03
2018-12-16T23:58:34.010Z,7.37
